sensor_id;sensor_type;location;lat;lon;timestamp;P1;durP1;ratioP1;P2;durP2;ratioP2
36257;SDS011;22294;52.044;4.582;2023-02-17T00:01:41;28.48;;;14.40;;
36257;SDS011;22294;52.044;4.582;2023-02-17T00:04:07;37.30;;;14.52;;
36257;SDS011;22294;52.044;4.582;2023-02-17T00:06:32;29.67;;;13.25;;
36257;SDS011;22294;52.044;4.582;2023-02-17T00:08:58;32.55;;;14.02;;
36257;SDS011;22294;52.044;4.582;2023-02-17T00:11:24;27.73;;;13.10;;
36257;SDS011;22294;52.044;4.582;2023-02-17T00:13:50;28.92;;;13.50;;
36257;SDS011;22294;52.044;4.582;2023-02-17T00:16:18;34.70;;;14.80;;
36257;SDS011;22294;52.044;4.582;2023-02-17T00:18:45;31.80;;;14.27;;
36257;SDS011;22294;52.044;4.582;2023-02-17T00:21:15;28.05;;;13.13;;
36257;SDS011;22294;52.044;4.582;2023-02-17T00:23:42;33.17;;;13.85;;
36257;SDS011;22294;52.044;4.582;2023-02-17T00:26:08;30.58;;;13.40;;
36257;SDS011;22294;52.044;4.582;2023-02-17T00:28:34;31.27;;;12.10;;
36257;SDS011;22294;52.044;4.582;2023-02-17T00:31:04;31.50;;;13.07;;
36257;SDS011;22294;52.044;4.582;2023-02-17T00:33:30;29.73;;;13.07;;
36257;SDS011;22294;52.044;4.582;2023-02-17T00:35:55;34.78;;;13.70;;
36257;SDS011;22294;52.044;4.582;2023-02-17T00:38:20;33.78;;;14.48;;
36257;SDS011;22294;52.044;4.582;2023-02-17T00:40:46;32.63;;;14.80;;
36257;SDS011;22294;52.044;4.582;2023-02-17T00:43:11;28.75;;;13.30;;
36257;SDS011;22294;52.044;4.582;2023-02-17T00:45:37;40.25;;;14.57;;
36257;SDS011;22294;52.044;4.582;2023-02-17T00:48:03;30.63;;;13.77;;
36257;SDS011;22294;52.044;4.582;2023-02-17T00:50:28;35.17;;;14.20;;
36257;SDS011;22294;52.044;4.582;2023-02-17T00:52:53;33.78;;;13.85;;
36257;SDS011;22294;52.044;4.582;2023-02-17T00:55:19;38.38;;;14.70;;
36257;SDS011;22294;52.044;4.582;2023-02-17T00:57:44;35.60;;;14.68;;
36257;SDS011;22294;52.044;4.582;2023-02-17T01:00:09;37.35;;;14.63;;
36257;SDS011;22294;52.044;4.582;2023-02-17T01:02:35;37.30;;;14.23;;
36257;SDS011;22294;52.044;4.582;2023-02-17T01:05:01;34.38;;;14.50;;
36257;SDS011;22294;52.044;4.582;2023-02-17T01:07:26;35.53;;;14.18;;
36257;SDS011;22294;52.044;4.582;2023-02-17T01:09:52;38.28;;;15.10;;
36257;SDS011;22294;52.044;4.582;2023-02-17T01:12:17;38.40;;;15.32;;
36257;SDS011;22294;52.044;4.582;2023-02-17T01:14:42;36.97;;;14.82;;
36257;SDS011;22294;52.044;4.582;2023-02-17T01:17:08;41.50;;;15.73;;
36257;SDS011;22294;52.044;4.582;2023-02-17T01:19:33;41.00;;;16.13;;
36257;SDS011;22294;52.044;4.582;2023-02-17T01:21:58;38.08;;;15.23;;
36257;SDS011;22294;52.044;4.582;2023-02-17T01:24:24;38.53;;;15.68;;
36257;SDS011;22294;52.044;4.582;2023-02-17T01:26:49;38.90;;;14.73;;
36257;SDS011;22294;52.044;4.582;2023-02-17T01:29:14;39.25;;;15.80;;
36257;SDS011;22294;52.044;4.582;2023-02-17T01:31:40;41.95;;;15.85;;
36257;SDS011;22294;52.044;4.582;2023-02-17T01:34:05;38.78;;;15.32;;
36257;SDS011;22294;52.044;4.582;2023-02-17T01:36:30;39.40;;;15.82;;
36257;SDS011;22294;52.044;4.582;2023-02-17T01:38:56;37.60;;;16.30;;
36257;SDS011;22294;52.044;4.582;2023-02-17T01:41:22;38.67;;;16.00;;
36257;SDS011;22294;52.044;4.582;2023-02-17T01:44:08;38.90;;;15.50;;
36257;SDS011;22294;52.044;4.582;2023-02-17T01:46:39;32.28;;;13.73;;
36257;SDS011;22294;52.044;4.582;2023-02-17T01:52:17;33.85;;;14.13;;
36257;SDS011;22294;52.044;4.582;2023-02-17T01:54:54;30.02;;;13.50;;
36257;SDS011;22294;52.044;4.582;2023-02-17T01:57:23;28.77;;;12.77;;
36257;SDS011;22294;52.044;4.582;2023-02-17T01:59:51;25.70;;;12.88;;
36257;SDS011;22294;52.044;4.582;2023-02-17T02:02:17;28.48;;;13.60;;
36257;SDS011;22294;52.044;4.582;2023-02-17T02:04:44;28.92;;;14.13;;
36257;SDS011;22294;52.044;4.582;2023-02-17T02:07:15;32.28;;;14.63;;
36257;SDS011;22294;52.044;4.582;2023-02-17T02:09:50;28.95;;;14.75;;
36257;SDS011;22294;52.044;4.582;2023-02-17T02:12:20;30.50;;;14.70;;
36257;SDS011;22294;52.044;4.582;2023-02-17T02:14:48;29.23;;;13.80;;
36257;SDS011;22294;52.044;4.582;2023-02-17T02:17:34;27.73;;;13.90;;
36257;SDS011;22294;52.044;4.582;2023-02-17T02:22:52;31.67;;;14.75;;
36257;SDS011;22294;52.044;4.582;2023-02-17T02:34:23;33.45;;;17.45;;
36257;SDS011;22294;52.044;4.582;2023-02-17T02:36:59;32.85;;;16.10;;
36257;SDS011;22294;52.044;4.582;2023-02-17T02:39:32;32.42;;;15.52;;
36257;SDS011;22294;52.044;4.582;2023-02-17T02:42:05;32.42;;;15.35;;
36257;SDS011;22294;52.044;4.582;2023-02-17T02:44:35;35.78;;;16.33;;
36257;SDS011;22294;52.044;4.582;2023-02-17T02:47:02;35.72;;;15.98;;
36257;SDS011;22294;52.044;4.582;2023-02-17T02:49:29;35.05;;;15.63;;
36257;SDS011;22294;52.044;4.582;2023-02-17T02:52:17;33.42;;;15.07;;
36257;SDS011;22294;52.044;4.582;2023-02-17T02:55:00;36.55;;;15.18;;
36257;SDS011;22294;52.044;4.582;2023-02-17T02:57:44;36.63;;;15.55;;
36257;SDS011;22294;52.044;4.582;2023-02-17T03:00:22;34.20;;;14.70;;
36257;SDS011;22294;52.044;4.582;2023-02-17T03:10:55;39.33;;;15.77;;
36257;SDS011;22294;52.044;4.582;2023-02-17T03:13:20;37.15;;;15.50;;
36257;SDS011;22294;52.044;4.582;2023-02-17T03:15:46;37.13;;;15.25;;
36257;SDS011;22294;52.044;4.582;2023-02-17T03:18:12;35.10;;;14.80;;
36257;SDS011;22294;52.044;4.582;2023-02-17T03:20:39;36.63;;;16.58;;
36257;SDS011;22294;52.044;4.582;2023-02-17T03:23:09;42.60;;;19.02;;
36257;SDS011;22294;52.044;4.582;2023-02-17T03:25:35;45.53;;;19.30;;
36257;SDS011;22294;52.044;4.582;2023-02-17T03:28:00;41.47;;;19.05;;
36257;SDS011;22294;52.044;4.582;2023-02-17T03:30:26;43.22;;;20.10;;
36257;SDS011;22294;52.044;4.582;2023-02-17T03:32:53;45.35;;;19.42;;
36257;SDS011;22294;52.044;4.582;2023-02-17T03:35:19;52.25;;;21.13;;
36257;SDS011;22294;52.044;4.582;2023-02-17T03:37:44;43.42;;;20.55;;
36257;SDS011;22294;52.044;4.582;2023-02-17T03:40:09;43.53;;;20.42;;
36257;SDS011;22294;52.044;4.582;2023-02-17T03:42:35;49.58;;;21.40;;
36257;SDS011;22294;52.044;4.582;2023-02-17T03:45:01;47.17;;;20.52;;
36257;SDS011;22294;52.044;4.582;2023-02-17T03:47:28;46.78;;;20.92;;
36257;SDS011;22294;52.044;4.582;2023-02-17T03:49:53;49.83;;;20.80;;
36257;SDS011;22294;52.044;4.582;2023-02-17T03:52:18;49.72;;;21.25;;
36257;SDS011;22294;52.044;4.582;2023-02-17T03:54:44;46.55;;;20.00;;
36257;SDS011;22294;52.044;4.582;2023-02-17T03:57:09;47.75;;;21.33;;
36257;SDS011;22294;52.044;4.582;2023-02-17T03:59:35;46.00;;;21.33;;
36257;SDS011;22294;52.044;4.582;2023-02-17T04:02:00;44.58;;;20.90;;
36257;SDS011;22294;52.044;4.582;2023-02-17T04:04:26;47.50;;;22.23;;
36257;SDS011;22294;52.044;4.582;2023-02-17T04:06:52;39.50;;;20.90;;
36257;SDS011;22294;52.044;4.582;2023-02-17T04:09:17;46.00;;;21.80;;
36257;SDS011;22294;52.044;4.582;2023-02-17T04:11:42;48.80;;;21.10;;
36257;SDS011;22294;52.044;4.582;2023-02-17T04:14:08;51.30;;;21.23;;
36257;SDS011;22294;52.044;4.582;2023-02-17T04:16:33;44.25;;;21.08;;
36257;SDS011;22294;52.044;4.582;2023-02-17T04:18:58;41.30;;;21.55;;
36257;SDS011;22294;52.044;4.582;2023-02-17T04:21:24;45.92;;;20.20;;
36257;SDS011;22294;52.044;4.582;2023-02-17T04:23:49;42.75;;;19.52;;
36257;SDS011;22294;52.044;4.582;2023-02-17T04:26:15;46.42;;;18.60;;
36257;SDS011;22294;52.044;4.582;2023-02-17T04:28:40;41.13;;;18.70;;
36257;SDS011;22294;52.044;4.582;2023-02-17T04:31:06;41.90;;;18.33;;
36257;SDS011;22294;52.044;4.582;2023-02-17T04:33:32;44.85;;;17.90;;
36257;SDS011;22294;52.044;4.582;2023-02-17T04:35:58;43.95;;;17.70;;
36257;SDS011;22294;52.044;4.582;2023-02-17T04:38:27;48.92;;;18.10;;
36257;SDS011;22294;52.044;4.582;2023-02-17T04:40:55;39.70;;;17.42;;
36257;SDS011;22294;52.044;4.582;2023-02-17T04:43:21;44.28;;;17.15;;
36257;SDS011;22294;52.044;4.582;2023-02-17T04:45:47;39.45;;;16.30;;
36257;SDS011;22294;52.044;4.582;2023-02-17T04:48:12;43.20;;;16.80;;
36257;SDS011;22294;52.044;4.582;2023-02-17T04:50:38;43.25;;;16.73;;
36257;SDS011;22294;52.044;4.582;2023-02-17T04:53:03;44.40;;;17.13;;
36257;SDS011;22294;52.044;4.582;2023-02-17T04:55:29;41.72;;;17.55;;
36257;SDS011;22294;52.044;4.582;2023-02-17T04:57:54;42.00;;;18.10;;
36257;SDS011;22294;52.044;4.582;2023-02-17T05:00:20;45.83;;;18.02;;
36257;SDS011;22294;52.044;4.582;2023-02-17T05:02:46;43.72;;;17.73;;
36257;SDS011;22294;52.044;4.582;2023-02-17T05:05:11;42.60;;;18.42;;
36257;SDS011;22294;52.044;4.582;2023-02-17T05:07:39;43.95;;;17.40;;
36257;SDS011;22294;52.044;4.582;2023-02-17T05:10:06;45.08;;;19.08;;
36257;SDS011;22294;52.044;4.582;2023-02-17T05:12:31;40.60;;;17.35;;
36257;SDS011;22294;52.044;4.582;2023-02-17T05:14:57;44.90;;;19.17;;
36257;SDS011;22294;52.044;4.582;2023-02-17T05:17:22;45.33;;;19.85;;
36257;SDS011;22294;52.044;4.582;2023-02-17T05:19:47;46.83;;;18.92;;
36257;SDS011;22294;52.044;4.582;2023-02-17T05:22:12;44.50;;;17.92;;
36257;SDS011;22294;52.044;4.582;2023-02-17T05:24:38;45.88;;;19.13;;
36257;SDS011;22294;52.044;4.582;2023-02-17T05:27:03;47.55;;;19.77;;
36257;SDS011;22294;52.044;4.582;2023-02-17T05:29:29;51.67;;;20.60;;
36257;SDS011;22294;52.044;4.582;2023-02-17T05:31:54;49.88;;;20.83;;
36257;SDS011;22294;52.044;4.582;2023-02-17T05:34:19;50.42;;;20.75;;
36257;SDS011;22294;52.044;4.582;2023-02-17T05:36:45;56.40;;;21.00;;
36257;SDS011;22294;52.044;4.582;2023-02-17T05:39:10;59.65;;;22.60;;
36257;SDS011;22294;52.044;4.582;2023-02-17T05:41:36;56.35;;;21.75;;
36257;SDS011;22294;52.044;4.582;2023-02-17T05:44:02;56.70;;;23.25;;
36257;SDS011;22294;52.044;4.582;2023-02-17T05:46:27;55.28;;;22.55;;
36257;SDS011;22294;52.044;4.582;2023-02-17T05:48:52;59.72;;;22.23;;
36257;SDS011;22294;52.044;4.582;2023-02-17T05:51:17;52.97;;;22.17;;
36257;SDS011;22294;52.044;4.582;2023-02-17T05:53:43;59.35;;;23.48;;
36257;SDS011;22294;52.044;4.582;2023-02-17T05:56:08;54.28;;;23.35;;
36257;SDS011;22294;52.044;4.582;2023-02-17T05:58:35;47.95;;;21.77;;
36257;SDS011;22294;52.044;4.582;2023-02-17T06:01:01;57.30;;;23.05;;
36257;SDS011;22294;52.044;4.582;2023-02-17T06:03:26;44.13;;;21.42;;
36257;SDS011;22294;52.044;4.582;2023-02-17T06:05:51;54.25;;;21.38;;
36257;SDS011;22294;52.044;4.582;2023-02-17T06:08:17;44.13;;;20.80;;
36257;SDS011;22294;52.044;4.582;2023-02-17T06:10:42;42.78;;;20.35;;
36257;SDS011;22294;52.044;4.582;2023-02-17T06:13:07;44.25;;;20.50;;
36257;SDS011;22294;52.044;4.582;2023-02-17T06:15:33;45.20;;;22.70;;
36257;SDS011;22294;52.044;4.582;2023-02-17T06:17:58;38.53;;;18.85;;
36257;SDS011;22294;52.044;4.582;2023-02-17T06:20:24;36.28;;;16.70;;
36257;SDS011;22294;52.044;4.582;2023-02-17T06:22:49;36.00;;;16.50;;
36257;SDS011;22294;52.044;4.582;2023-02-17T06:25:15;31.20;;;16.25;;
36257;SDS011;22294;52.044;4.582;2023-02-17T06:27:40;37.97;;;16.50;;
36257;SDS011;22294;52.044;4.582;2023-02-17T06:30:08;31.95;;;16.38;;
36257;SDS011;22294;52.044;4.582;2023-02-17T06:32:34;35.60;;;17.00;;
36257;SDS011;22294;52.044;4.582;2023-02-17T06:35:00;35.97;;;16.88;;
36257;SDS011;22294;52.044;4.582;2023-02-17T06:37:25;33.97;;;15.95;;
36257;SDS011;22294;52.044;4.582;2023-02-17T06:39:50;30.52;;;16.05;;
36257;SDS011;22294;52.044;4.582;2023-02-17T06:42:16;30.17;;;15.25;;
36257;SDS011;22294;52.044;4.582;2023-02-17T06:44:41;30.50;;;14.18;;
36257;SDS011;22294;52.044;4.582;2023-02-17T06:47:06;28.98;;;14.60;;
36257;SDS011;22294;52.044;4.582;2023-02-17T06:49:31;30.85;;;13.77;;
36257;SDS011;22294;52.044;4.582;2023-02-17T06:51:57;29.92;;;14.20;;
36257;SDS011;22294;52.044;4.582;2023-02-17T06:54:22;32.65;;;13.57;;
36257;SDS011;22294;52.044;4.582;2023-02-17T06:56:47;28.88;;;14.35;;
36257;SDS011;22294;52.044;4.582;2023-02-17T06:59:13;29.75;;;13.55;;
36257;SDS011;22294;52.044;4.582;2023-02-17T07:01:38;33.08;;;13.23;;
36257;SDS011;22294;52.044;4.582;2023-02-17T07:04:03;26.70;;;11.88;;
36257;SDS011;22294;52.044;4.582;2023-02-17T07:06:29;26.45;;;11.73;;
36257;SDS011;22294;52.044;4.582;2023-02-17T07:08:54;23.80;;;11.80;;
36257;SDS011;22294;52.044;4.582;2023-02-17T07:11:21;25.33;;;11.20;;
36257;SDS011;22294;52.044;4.582;2023-02-17T07:13:46;24.60;;;11.05;;
36257;SDS011;22294;52.044;4.582;2023-02-17T07:16:13;26.67;;;11.25;;
36257;SDS011;22294;52.044;4.582;2023-02-17T07:18:39;26.70;;;10.68;;
36257;SDS011;22294;52.044;4.582;2023-02-17T07:21:05;26.42;;;9.85;;
36257;SDS011;22294;52.044;4.582;2023-02-17T07:23:32;21.98;;;10.15;;
36257;SDS011;22294;52.044;4.582;2023-02-17T07:26:02;24.95;;;10.38;;
36257;SDS011;22294;52.044;4.582;2023-02-17T07:28:33;23.77;;;10.63;;
36257;SDS011;22294;52.044;4.582;2023-02-17T07:31:09;27.55;;;9.73;;
36257;SDS011;22294;52.044;4.582;2023-02-17T07:33:36;30.08;;;10.52;;
36257;SDS011;22294;52.044;4.582;2023-02-17T07:36:06;23.17;;;9.50;;
36257;SDS011;22294;52.044;4.582;2023-02-17T07:38:32;29.10;;;9.82;;
36257;SDS011;22294;52.044;4.582;2023-02-17T07:41:02;23.90;;;10.55;;
36257;SDS011;22294;52.044;4.582;2023-02-17T07:43:32;25.33;;;10.27;;
36257;SDS011;22294;52.044;4.582;2023-02-17T07:45:57;25.13;;;9.85;;
36257;SDS011;22294;52.044;4.582;2023-02-17T07:48:22;22.67;;;9.65;;
36257;SDS011;22294;52.044;4.582;2023-02-17T07:50:48;24.17;;;9.80;;
36257;SDS011;22294;52.044;4.582;2023-02-17T07:53:13;19.38;;;8.48;;
36257;SDS011;22294;52.044;4.582;2023-02-17T07:55:38;21.85;;;8.95;;
36257;SDS011;22294;52.044;4.582;2023-02-17T07:58:04;22.98;;;8.10;;
36257;SDS011;22294;52.044;4.582;2023-02-17T08:00:29;15.38;;;7.60;;
36257;SDS011;22294;52.044;4.582;2023-02-17T08:02:54;21.60;;;8.50;;
36257;SDS011;22294;52.044;4.582;2023-02-17T08:05:20;20.48;;;8.43;;
36257;SDS011;22294;52.044;4.582;2023-02-17T08:07:45;18.30;;;7.72;;
36257;SDS011;22294;52.044;4.582;2023-02-17T08:10:12;18.77;;;8.40;;
36257;SDS011;22294;52.044;4.582;2023-02-17T08:12:56;21.20;;;7.80;;
36257;SDS011;22294;52.044;4.582;2023-02-17T08:15:40;19.27;;;8.07;;
36257;SDS011;22294;52.044;4.582;2023-02-17T08:18:05;21.08;;;9.30;;
36257;SDS011;22294;52.044;4.582;2023-02-17T08:20:31;21.20;;;9.05;;
36257;SDS011;22294;52.044;4.582;2023-02-17T08:22:56;25.40;;;9.77;;
36257;SDS011;22294;52.044;4.582;2023-02-17T08:25:21;23.80;;;9.85;;
36257;SDS011;22294;52.044;4.582;2023-02-17T08:27:47;20.25;;;9.70;;
36257;SDS011;22294;52.044;4.582;2023-02-17T08:30:12;18.10;;;8.77;;
36257;SDS011;22294;52.044;4.582;2023-02-17T08:32:37;19.30;;;9.32;;
36257;SDS011;22294;52.044;4.582;2023-02-17T08:35:03;18.02;;;9.02;;
36257;SDS011;22294;52.044;4.582;2023-02-17T08:37:30;25.27;;;9.32;;
36257;SDS011;22294;52.044;4.582;2023-02-17T08:39:56;22.05;;;8.52;;
36257;SDS011;22294;52.044;4.582;2023-02-17T08:42:23;17.25;;;8.60;;
36257;SDS011;22294;52.044;4.582;2023-02-17T08:44:50;20.95;;;9.05;;
36257;SDS011;22294;52.044;4.582;2023-02-17T08:47:15;14.07;;;8.27;;
36257;SDS011;22294;52.044;4.582;2023-02-17T08:49:40;18.08;;;8.70;;
36257;SDS011;22294;52.044;4.582;2023-02-17T08:52:06;21.70;;;8.90;;
36257;SDS011;22294;52.044;4.582;2023-02-17T08:54:31;15.38;;;7.90;;
36257;SDS011;22294;52.044;4.582;2023-02-17T08:56:57;17.35;;;8.25;;
36257;SDS011;22294;52.044;4.582;2023-02-17T08:59:23;19.73;;;8.27;;
36257;SDS011;22294;52.044;4.582;2023-02-17T09:01:48;18.20;;;7.78;;
36257;SDS011;22294;52.044;4.582;2023-02-17T09:04:14;19.27;;;7.15;;
36257;SDS011;22294;52.044;4.582;2023-02-17T09:06:50;17.02;;;8.02;;
36257;SDS011;22294;52.044;4.582;2023-02-17T09:09:17;21.00;;;8.48;;
36257;SDS011;22294;52.044;4.582;2023-02-17T09:11:46;18.15;;;7.97;;
36257;SDS011;22294;52.044;4.582;2023-02-17T09:14:11;22.83;;;8.93;;
36257;SDS011;22294;52.044;4.582;2023-02-17T09:16:37;14.73;;;8.02;;
36257;SDS011;22294;52.044;4.582;2023-02-17T09:19:02;22.00;;;8.68;;
36257;SDS011;22294;52.044;4.582;2023-02-17T09:21:28;18.75;;;7.60;;
36257;SDS011;22294;52.044;4.582;2023-02-17T09:23:53;19.17;;;8.20;;
36257;SDS011;22294;52.044;4.582;2023-02-17T09:26:18;14.20;;;7.88;;
36257;SDS011;22294;52.044;4.582;2023-02-17T09:28:44;16.10;;;7.00;;
36257;SDS011;22294;52.044;4.582;2023-02-17T09:31:12;18.27;;;7.35;;
36257;SDS011;22294;52.044;4.582;2023-02-17T09:33:40;17.45;;;7.97;;
36257;SDS011;22294;52.044;4.582;2023-02-17T09:36:07;18.88;;;7.72;;
36257;SDS011;22294;52.044;4.582;2023-02-17T09:38:34;18.83;;;8.20;;
36257;SDS011;22294;52.044;4.582;2023-02-17T09:41:07;22.00;;;8.75;;
36257;SDS011;22294;52.044;4.582;2023-02-17T09:43:40;18.00;;;7.45;;
36257;SDS011;22294;52.044;4.582;2023-02-17T09:46:14;18.30;;;8.30;;
36257;SDS011;22294;52.044;4.582;2023-02-17T09:48:45;14.75;;;6.05;;
36257;SDS011;22294;52.044;4.582;2023-02-17T09:51:16;16.58;;;6.40;;
36257;SDS011;22294;52.044;4.582;2023-02-17T09:53:59;15.50;;;5.97;;
36257;SDS011;22294;52.044;4.582;2023-02-17T09:56:32;13.02;;;5.90;;
36257;SDS011;22294;52.044;4.582;2023-02-17T10:01:31;17.20;;;6.22;;
36257;SDS011;22294;52.044;4.582;2023-02-17T10:06:37;10.52;;;6.28;;
36257;SDS011;22294;52.044;4.582;2023-02-17T10:11:38;16.88;;;6.40;;
36257;SDS011;22294;52.044;4.582;2023-02-17T10:14:30;17.10;;;6.50;;
36257;SDS011;22294;52.044;4.582;2023-02-17T10:22:45;16.73;;;5.85;;
36257;SDS011;22294;52.044;4.582;2023-02-17T10:25:17;15.00;;;6.13;;
36257;SDS011;22294;52.044;4.582;2023-02-17T10:27:50;17.70;;;7.22;;
36257;SDS011;22294;52.044;4.582;2023-02-17T10:33:12;14.75;;;6.28;;
36257;SDS011;22294;52.044;4.582;2023-02-17T10:35:52;18.50;;;6.20;;
36257;SDS011;22294;52.044;4.582;2023-02-17T10:40:56;16.40;;;6.38;;
36257;SDS011;22294;52.044;4.582;2023-02-17T10:43:25;12.30;;;5.63;;
36257;SDS011;22294;52.044;4.582;2023-02-17T10:45:56;18.55;;;5.75;;
36257;SDS011;22294;52.044;4.582;2023-02-17T10:48:37;13.70;;;5.65;;
36257;SDS011;22294;52.044;4.582;2023-02-17T10:51:04;18.00;;;6.30;;
36257;SDS011;22294;52.044;4.582;2023-02-17T10:53:31;12.98;;;5.28;;
36257;SDS011;22294;52.044;4.582;2023-02-17T10:56:14;19.25;;;5.40;;
36257;SDS011;22294;52.044;4.582;2023-02-17T10:58:57;10.02;;;5.38;;
36257;SDS011;22294;52.044;4.582;2023-02-17T11:01:28;19.17;;;5.97;;
36257;SDS011;22294;52.044;4.582;2023-02-17T11:04:00;14.60;;;5.53;;
36257;SDS011;22294;52.044;4.582;2023-02-17T11:06:30;21.10;;;5.93;;
36257;SDS011;22294;52.044;4.582;2023-02-17T11:09:02;16.35;;;5.28;;
36257;SDS011;22294;52.044;4.582;2023-02-17T11:11:33;18.83;;;6.32;;
36257;SDS011;22294;52.044;4.582;2023-02-17T11:16:33;14.23;;;6.30;;
36257;SDS011;22294;52.044;4.582;2023-02-17T11:19:02;13.50;;;5.95;;
36257;SDS011;22294;52.044;4.582;2023-02-17T11:21:29;18.98;;;5.68;;
36257;SDS011;22294;52.044;4.582;2023-02-17T11:23:58;17.17;;;5.60;;
36257;SDS011;22294;52.044;4.582;2023-02-17T11:26:28;18.15;;;5.80;;
36257;SDS011;22294;52.044;4.582;2023-02-17T11:29:05;14.75;;;6.13;;
36257;SDS011;22294;52.044;4.582;2023-02-17T11:31:32;15.02;;;6.32;;
36257;SDS011;22294;52.044;4.582;2023-02-17T11:33:57;18.15;;;6.55;;
36257;SDS011;22294;52.044;4.582;2023-02-17T11:36:24;20.08;;;6.28;;
36257;SDS011;22294;52.044;4.582;2023-02-17T11:38:52;20.55;;;5.97;;
36257;SDS011;22294;52.044;4.582;2023-02-17T11:41:18;19.77;;;6.32;;
36257;SDS011;22294;52.044;4.582;2023-02-17T11:43:57;21.33;;;6.40;;
36257;SDS011;22294;52.044;4.582;2023-02-17T11:46:31;23.30;;;6.88;;
36257;SDS011;22294;52.044;4.582;2023-02-17T11:54:55;18.10;;;6.35;;
36257;SDS011;22294;52.044;4.582;2023-02-17T12:00:11;23.83;;;6.70;;
36257;SDS011;22294;52.044;4.582;2023-02-17T12:06:13;19.75;;;6.13;;
36257;SDS011;22294;52.044;4.582;2023-02-17T12:14:23;17.63;;;5.82;;
36257;SDS011;22294;52.044;4.582;2023-02-17T12:22:28;20.77;;;5.88;;
36257;SDS011;22294;52.044;4.582;2023-02-17T12:25:16;18.48;;;7.07;;
36257;SDS011;22294;52.044;4.582;2023-02-17T12:27:56;18.98;;;5.80;;
36257;SDS011;22294;52.044;4.582;2023-02-17T12:33:27;20.77;;;5.93;;
36257;SDS011;22294;52.044;4.582;2023-02-17T12:36:12;19.77;;;6.00;;
36257;SDS011;22294;52.044;4.582;2023-02-17T12:38:41;20.85;;;5.43;;
36257;SDS011;22294;52.044;4.582;2023-02-17T12:41:16;16.00;;;5.28;;
36257;SDS011;22294;52.044;4.582;2023-02-17T12:43:48;24.15;;;6.40;;
36257;SDS011;22294;52.044;4.582;2023-02-17T12:46:20;23.20;;;5.90;;
36257;SDS011;22294;52.044;4.582;2023-02-17T12:48:52;21.10;;;5.78;;
36257;SDS011;22294;52.044;4.582;2023-02-17T12:51:38;24.08;;;6.18;;
36257;SDS011;22294;52.044;4.582;2023-02-17T12:54:16;19.17;;;5.88;;
36257;SDS011;22294;52.044;4.582;2023-02-17T12:59:15;27.10;;;6.50;;
36257;SDS011;22294;52.044;4.582;2023-02-17T13:02:03;26.45;;;6.10;;
36257;SDS011;22294;52.044;4.582;2023-02-17T13:04:31;22.13;;;5.75;;
36257;SDS011;22294;52.044;4.582;2023-02-17T13:07:03;24.33;;;5.80;;
36257;SDS011;22294;52.044;4.582;2023-02-17T13:09:44;23.17;;;5.78;;
36257;SDS011;22294;52.044;4.582;2023-02-17T13:12:16;27.13;;;6.80;;
36257;SDS011;22294;52.044;4.582;2023-02-17T13:14:49;29.02;;;6.50;;
36257;SDS011;22294;52.044;4.582;2023-02-17T13:22:32;22.25;;;4.80;;
36257;SDS011;22294;52.044;4.582;2023-02-17T13:24:58;19.98;;;5.30;;
36257;SDS011;22294;52.044;4.582;2023-02-17T13:29:59;19.20;;;5.10;;
36257;SDS011;22294;52.044;4.582;2023-02-17T13:32:34;28.50;;;6.00;;
36257;SDS011;22294;52.044;4.582;2023-02-17T13:35:03;25.88;;;5.97;;
36257;SDS011;22294;52.044;4.582;2023-02-17T13:37:52;23.55;;;5.85;;
36257;SDS011;22294;52.044;4.582;2023-02-17T13:42:47;26.75;;;5.80;;
36257;SDS011;22294;52.044;4.582;2023-02-17T13:45:22;22.40;;;5.55;;
36257;SDS011;22294;52.044;4.582;2023-02-17T13:47:52;26.48;;;6.25;;
36257;SDS011;22294;52.044;4.582;2023-02-17T13:50:29;28.75;;;5.90;;
36257;SDS011;22294;52.044;4.582;2023-02-17T13:52:56;25.95;;;6.57;;
36257;SDS011;22294;52.044;4.582;2023-02-17T13:55:21;22.83;;;6.85;;
36257;SDS011;22294;52.044;4.582;2023-02-17T13:57:51;28.85;;;7.18;;
36257;SDS011;22294;52.044;4.582;2023-02-17T14:00:34;30.50;;;6.28;;
36257;SDS011;22294;52.044;4.582;2023-02-17T14:05:51;19.52;;;6.07;;
36257;SDS011;22294;52.044;4.582;2023-02-17T14:08:38;26.55;;;7.22;;
36257;SDS011;22294;52.044;4.582;2023-02-17T14:11:12;21.23;;;5.65;;
36257;SDS011;22294;52.044;4.582;2023-02-17T14:13:41;23.35;;;5.53;;
36257;SDS011;22294;52.044;4.582;2023-02-17T14:21:34;19.70;;;4.75;;
36257;SDS011;22294;52.044;4.582;2023-02-17T14:24:01;28.05;;;5.70;;
36257;SDS011;22294;52.044;4.582;2023-02-17T14:26:31;30.38;;;5.25;;
36257;SDS011;22294;52.044;4.582;2023-02-17T14:29:02;25.25;;;5.43;;
36257;SDS011;22294;52.044;4.582;2023-02-17T14:31:35;36.88;;;5.53;;
36257;SDS011;22294;52.044;4.582;2023-02-17T14:34:06;21.05;;;4.53;;
36257;SDS011;22294;52.044;4.582;2023-02-17T14:36:37;26.67;;;5.57;;
36257;SDS011;22294;52.044;4.582;2023-02-17T14:39:05;24.00;;;5.80;;
36257;SDS011;22294;52.044;4.582;2023-02-17T14:41:31;24.50;;;5.47;;
36257;SDS011;22294;52.044;4.582;2023-02-17T14:43:57;22.90;;;6.00;;
36257;SDS011;22294;52.044;4.582;2023-02-17T14:46:23;23.20;;;5.75;;
36257;SDS011;22294;52.044;4.582;2023-02-17T14:48:49;22.58;;;5.53;;
36257;SDS011;22294;52.044;4.582;2023-02-17T14:51:16;26.73;;;6.18;;
36257;SDS011;22294;52.044;4.582;2023-02-17T14:53:43;22.30;;;5.55;;
36257;SDS011;22294;52.044;4.582;2023-02-17T14:56:20;22.88;;;5.47;;
36257;SDS011;22294;52.044;4.582;2023-02-17T14:58:50;27.08;;;5.85;;
36257;SDS011;22294;52.044;4.582;2023-02-17T15:01:18;25.58;;;5.45;;
36257;SDS011;22294;52.044;4.582;2023-02-17T15:03:44;24.38;;;5.03;;
36257;SDS011;22294;52.044;4.582;2023-02-17T15:06:12;27.27;;;5.10;;
36257;SDS011;22294;52.044;4.582;2023-02-17T15:08:39;28.98;;;5.63;;
36257;SDS011;22294;52.044;4.582;2023-02-17T15:11:06;23.77;;;5.10;;
36257;SDS011;22294;52.044;4.582;2023-02-17T15:13:41;26.38;;;5.20;;
36257;SDS011;22294;52.044;4.582;2023-02-17T15:16:06;18.88;;;5.78;;
36257;SDS011;22294;52.044;4.582;2023-02-17T15:18:32;27.02;;;4.82;;
36257;SDS011;22294;52.044;4.582;2023-02-17T15:20:57;21.05;;;5.05;;
36257;SDS011;22294;52.044;4.582;2023-02-17T15:23:22;30.00;;;5.47;;
36257;SDS011;22294;52.044;4.582;2023-02-17T15:25:51;25.38;;;4.60;;
36257;SDS011;22294;52.044;4.582;2023-02-17T15:28:18;25.90;;;5.30;;
36257;SDS011;22294;52.044;4.582;2023-02-17T15:30:45;20.80;;;5.55;;
36257;SDS011;22294;52.044;4.582;2023-02-17T15:33:16;24.42;;;4.68;;
36257;SDS011;22294;52.044;4.582;2023-02-17T15:35:44;21.67;;;4.40;;
36257;SDS011;22294;52.044;4.582;2023-02-17T15:38:13;22.05;;;4.88;;
36257;SDS011;22294;52.044;4.582;2023-02-17T15:40:39;25.92;;;4.50;;
36257;SDS011;22294;52.044;4.582;2023-02-17T15:43:05;27.15;;;6.03;;
36257;SDS011;22294;52.044;4.582;2023-02-17T15:45:35;22.77;;;4.85;;
36257;SDS011;22294;52.044;4.582;2023-02-17T15:48:04;23.90;;;4.65;;
36257;SDS011;22294;52.044;4.582;2023-02-17T15:50:34;24.58;;;4.95;;
36257;SDS011;22294;52.044;4.582;2023-02-17T15:52:59;28.52;;;5.05;;
36257;SDS011;22294;52.044;4.582;2023-02-17T15:55:25;25.42;;;5.32;;
36257;SDS011;22294;52.044;4.582;2023-02-17T15:57:53;23.65;;;5.72;;
36257;SDS011;22294;52.044;4.582;2023-02-17T16:00:22;24.23;;;6.03;;
36257;SDS011;22294;52.044;4.582;2023-02-17T16:02:50;28.35;;;5.38;;
36257;SDS011;22294;52.044;4.582;2023-02-17T16:05:16;23.02;;;5.63;;
36257;SDS011;22294;52.044;4.582;2023-02-17T16:07:42;27.08;;;5.03;;